Clinton Township, Michigan
Current Conditions -  °F | °C
As of 11:39 AM on Friday 31 Oct 2014 (Local Time) from KMTC Reporting Station
Light Rain Light Rain  
Wind Chill: 45°   Ceiling: 900
Heat Index: 45°   Visibility: 7mi
Dew Point: 45°   Wind: 3mph
Humidity: 100%   Direction: 300°WNW
Pressure: 29.86"   Gusts: NA
Location:  42.6°N, 82.95°W
Report Text: KMTC 311539Z 30003KT 7SM -RA BKN009 BKN015 OVC027 07/07 A2986
Loading
Personal Weather Stations






























Interactive Weather Map
Tropical Storm Tracking
New forecast layout! Learn more

10-Day Weather Forecast

Advertisements
Track Severe Weather on mobile